Time;durP1;ratioP1;P1;durP2;ratioP2;P2;SDS_P1;SDS_P2;PMS_P1;PMS_P2;Temp;Humidity;BMP_temperature;BMP_pressure;BME280_temperature;BME280_humidity;BME280_pressure;Samples;Min_cycle;Max_cycle;Signal;HPM_P1;HPM_P2
2022/10/01 00:01:33;;;;;;;8.70;6.35;;;11.50;99.90;;;;;;5070650;28;20477;-69
2022/10/01 00:03:59;;;;;;;11.23;7.30;;;11.50;99.90;;;;;;5045824;28;20071;-68
2022/10/01 00:06:26;;;;;;;9.27;7.85;;;11.40;99.90;;;;;;5068046;28;20036;-69
2022/10/01 00:08:52;;;;;;;9.45;7.38;;;11.30;99.90;;;;;;5070892;28;20040;-68
2022/10/01 00:11:20;;;;;;;9.27;7.65;;;11.30;99.90;;;;;;5090082;28;20097;-68
2022/10/01 00:13:47;;;;;;;9.43;8.00;;;11.20;99.90;;;;;;5089873;28;20040;-69
2022/10/01 00:16:19;;;;;;;9.13;7.55;;;11.20;99.90;;;;;;5091715;28;20476;-68
2022/10/01 00:18:46;;;;;;;12.25;8.38;;;11.10;99.90;;;;;;5089856;28;20032;-68
2022/10/01 00:21:15;;;;;;;9.90;8.70;;;11.10;99.90;;;;;;5070543;28;20477;-68
2022/10/01 00:23:41;;;;;;;12.10;10.05;;;11.10;99.90;;;;;;5092034;28;20070;-69
2022/10/01 00:26:20;;;;;;;12.70;9.68;;;11.00;99.90;;;;;;5110931;28;20550;-68
2022/10/01 00:28:47;;;;;;;12.65;9.35;;;11.00;99.90;;;;;;5091290;28;20028;-69
2022/10/01 00:31:15;;;;;;;10.85;8.68;;;11.00;99.90;;;;;;5092613;28;20070;-68
2022/10/01 00:33:41;;;;;;;10.90;9.20;;;10.90;99.90;;;;;;5083182;28;20051;-68
2022/10/01 00:36:08;;;;;;;14.95;9.77;;;10.90;99.90;;;;;;5085246;28;20131;-68
2022/10/01 00:38:35;;;;;;;13.52;9.50;;;10.90;99.90;;;;;;5080729;28;20178;-69
2022/10/01 00:41:02;;;;;;;14.38;9.80;;;10.80;99.90;;;;;;5066575;28;20060;-69
2022/10/01 00:43:31;;;;;;;11.25;9.13;;;10.80;99.90;;;;;;5066093;28;20482;-69
2022/10/01 00:46:08;;;;;;;11.40;9.27;;;10.70;99.90;;;;;;5067186;28;20472;-69
2022/10/01 00:48:41;;;;;;;11.65;9.27;;;10.70;99.90;;;;;;5066867;28;20040;-69
2022/10/01 00:51:07;;;;;;;12.38;9.93;;;10.70;99.90;;;;;;5081292;28;20663;-68
2022/10/01 00:53:33;;;;;;;13.13;10.60;;;10.70;99.90;;;;;;5078744;28;20062;-69
2022/10/01 00:55:59;;;;;;;14.60;11.35;;;10.60;99.90;;;;;;5080532;28;20450;-68
2022/10/01 00:58:26;;;;;;;13.50;10.88;;;10.60;99.90;;;;;;5085115;28;20070;-69
2022/10/01 01:00:54;;;;;;;11.40;9.90;;;10.50;99.90;;;;;;5067208;28;20085;-69
2022/10/01 01:03:20;;;;;;;12.25;9.57;;;10.50;99.90;;;;;;5083767;28;20048;-69
2022/10/01 01:05:46;;;;;;;11.60;10.23;;;10.50;99.90;;;;;;5081677;28;20392;-69
2022/10/01 01:08:13;;;;;;;13.77;10.57;;;10.50;99.90;;;;;;5064349;28;20569;-69
2022/10/01 01:11:06;;;;;;;15.32;10.75;;;10.50;99.90;;;;;;5079558;28;20072;-68
2022/10/01 01:14:09;;;;;;;13.65;9.70;;;10.50;99.90;;;;;;5078255;28;20113;-69
2022/10/01 01:16:44;;;;;;;14.50;11.23;;;10.40;99.90;;;;;;5023782;28;20048;-70
2022/10/01 01:19:13;;;;;;;15.52;11.43;;;10.40;99.90;;;;;;5070991;28;20055;-69
2022/10/01 01:21:51;;;;;;;16.95;11.38;;;10.50;99.90;;;;;;5086885;28;20128;-70
2022/10/01 01:24:38;;;;;;;14.15;11.25;;;10.40;99.90;;;;;;5080902;28;20506;-69
2022/10/01 01:27:24;;;;;;;15.35;11.23;;;10.40;99.90;;;;;;5082521;28;20447;-69
2022/10/01 01:30:13;;;;;;;18.52;12.18;;;10.40;99.90;;;;;;5065777;28;20040;-70
2022/10/01 01:32:51;;;;;;;14.70;12.15;;;10.40;99.90;;;;;;5084908;28;20117;-69
2022/10/01 01:35:43;;;;;;;14.80;11.90;;;10.40;99.90;;;;;;5096655;27;20128;-69
2022/10/01 01:38:13;;;;;;;18.17;12.63;;;10.40;99.90;;;;;;5070826;28;20467;-70
2022/10/01 01:40:42;;;;;;;17.50;11.48;;;10.30;99.90;;;;;;5072893;28;20060;-69
2022/10/01 01:43:19;;;;;;;16.15;12.70;;;10.30;99.90;;;;;;5069664;28;20093;-69
2022/10/01 01:45:48;;;;;;;19.10;13.45;;;10.40;99.90;;;;;;5068602;28;20049;-70
2022/10/01 01:48:14;;;;;;;15.52;11.60;;;10.40;99.90;;;;;;5085317;28;20048;-69
2022/10/01 01:50:50;;;;;;;15.00;12.98;;;10.30;99.90;;;;;;5066204;28;20063;-68
2022/10/01 01:53:17;;;;;;;16.30;12.05;;;10.30;99.90;;;;;;5073671;28;20036;-69
2022/10/01 01:55:47;;;;;;;14.55;12.23;;;10.30;99.90;;;;;;5088233;27;20067;-69
2022/10/01 01:58:13;;;;;;;15.00;12.52;;;10.30;99.90;;;;;;5057352;28;20498;-68
2022/10/01 02:00:39;;;;;;;17.10;12.20;;;10.30;99.90;;;;;;5072863;28;20075;-68
2022/10/01 02:03:06;;;;;;;15.00;12.50;;;10.30;99.90;;;;;;5068641;28;20057;-69
2022/10/01 02:05:42;;;;;;;20.58;13.35;;;10.30;99.90;;;;;;5084525;28;20068;-70
2022/10/01 02:08:11;;;;;;;19.00;12.88;;;10.20;99.90;;;;;;5067385;28;20502;-69
2022/10/01 02:11:01;;;;;;;18.33;12.75;;;10.20;99.90;;;;;;5055938;28;20040;-68
2022/10/01 02:13:37;;;;;;;21.17;13.15;;;10.30;99.90;;;;;;5086146;28;20040;-69
2022/10/01 02:16:09;;;;;;;15.52;12.55;;;10.20;99.90;;;;;;5087441;28;20033;-69
2022/10/01 02:18:52;;;;;;;18.73;13.45;;;10.20;99.90;;;;;;5069828;28;20040;-69
2022/10/01 02:21:43;;;;;;;19.80;13.80;;;10.20;99.90;;;;;;5080041;28;20090;-69
2022/10/01 02:24:37;;;;;;;18.38;12.70;;;10.20;99.90;;;;;;5079111;28;20381;-69
2022/10/01 02:27:34;;;;;;;18.77;13.20;;;10.30;99.90;;;;;;5068888;28;20111;-68
2022/10/01 02:30:06;;;;;;;16.63;13.55;;;10.20;99.90;;;;;;5053358;28;20188;-69
2022/10/01 02:32:38;;;;;;;16.83;13.48;;;10.20;99.90;;;;;;5084300;28;20052;-69
2022/10/01 02:35:07;;;;;;;17.15;13.15;;;10.20;99.90;;;;;;5085027;28;20434;-69
2022/10/01 02:37:36;;;;;;;18.17;12.75;;;10.20;99.90;;;;;;5069561;28;20048;-68
2022/10/01 02:40:05;;;;;;;16.48;13.27;;;10.20;99.90;;;;;;5050480;28;20068;-69
2022/10/01 02:42:32;;;;;;;18.85;14.15;;;10.20;99.90;;;;;;5066653;28;20058;-68
2022/10/01 02:45:03;;;;;;;19.13;13.77;;;10.20;99.90;;;;;;5068349;28;20040;-69
2022/10/01 02:47:53;;;;;;;16.20;13.07;;;10.20;99.90;;;;;;5066510;28;20470;-69
2022/10/01 02:50:21;;;;;;;19.50;13.40;;;10.20;99.90;;;;;;5068900;28;20078;-69
2022/10/01 02:52:54;;;;;;;15.45;12.45;;;10.20;99.90;;;;;;5070049;28;20044;-69
2022/10/01 02:55:28;;;;;;;13.80;11.73;;;10.20;99.90;;;;;;5068162;28;20065;-69
2022/10/01 02:57:55;;;;;;;16.45;12.00;;;10.20;99.90;;;;;;5078531;28;20043;-68
2022/10/01 03:00:21;;;;;;;16.25;10.40;;;10.20;99.90;;;;;;5068240;28;20044;-69
2022/10/01 03:02:48;;;;;;;14.50;11.00;;;10.30;99.90;;;;;;5051134;28;20044;-69
2022/10/01 03:05:15;;;;;;;12.95;10.52;;;10.30;99.90;;;;;;5052107;28;20035;-70
2022/10/01 03:07:41;;;;;;;14.05;10.65;;;10.30;99.90;;;;;;5065914;28;20055;-70
2022/10/01 03:10:08;;;;;;;13.68;10.15;;;10.30;99.90;;;;;;5068095;28;20035;-69
2022/10/01 03:12:35;;;;;;;13.98;9.82;;;10.40;99.90;;;;;;5066014;28;20410;-69
2022/10/01 03:15:01;;;;;;;12.43;10.25;;;10.30;99.90;;;;;;5049497;28;20112;-69
2022/10/01 03:17:27;;;;;;;13.20;9.75;;;10.30;99.90;;;;;;5082672;28;20115;-68
2022/10/01 03:19:54;;;;;;;11.48;9.75;;;10.30;99.90;;;;;;5052232;28;20028;-68
2022/10/01 03:22:23;;;;;;;11.65;9.02;;;10.40;99.90;;;;;;5068679;28;20039;-69
2022/10/01 03:24:52;;;;;;;14.43;9.57;;;10.30;99.90;;;;;;5035306;28;20066;-69
2022/10/01 03:27:20;;;;;;;10.00;8.35;;;10.40;99.90;;;;;;5065103;28;20166;-69
2022/10/01 03:29:46;;;;;;;9.88;7.95;;;10.40;99.90;;;;;;5083897;28;20036;-70
2022/10/01 03:32:12;;;;;;;10.55;8.13;;;10.40;99.90;;;;;;5071007;28;20540;-69
2022/10/01 03:34:40;;;;;;;10.70;7.65;;;10.40;99.90;;;;;;5081825;28;20412;-68
2022/10/01 03:37:06;;;;;;;9.98;8.10;;;10.40;99.90;;;;;;5069215;28;20043;-69
2022/10/01 03:39:32;;;;;;;8.82;6.90;;;10.40;99.90;;;;;;5068751;28;20096;-69
2022/10/01 03:41:58;;;;;;;8.40;6.55;;;10.40;99.90;;;;;;5084073;28;20712;-69
2022/10/01 03:44:24;;;;;;;8.68;6.60;;;10.40;99.90;;;;;;5080741;28;20040;-69
2022/10/01 03:46:49;;;;;;;10.55;6.50;;;10.40;99.90;;;;;;5087015;28;20047;-69
2022/10/01 03:49:15;;;;;;;7.43;5.70;;;10.40;99.90;;;;;;5086349;28;20396;-69
2022/10/01 03:51:41;;;;;;;7.22;6.10;;;10.40;99.90;;;;;;5084555;28;20116;-68
2022/10/01 03:54:08;;;;;;;9.43;6.45;;;10.40;99.90;;;;;;5084216;28;20047;-68
2022/10/01 03:56:34;;;;;;;6.90;6.20;;;10.40;99.90;;;;;;5081687;28;20040;-69
2022/10/01 03:59:00;;;;;;;7.97;5.85;;;10.40;99.90;;;;;;5065081;28;20040;-69
2022/10/01 04:01:27;;;;;;;6.55;5.85;;;10.40;99.90;;;;;;5047114;28;20052;-69
2022/10/01 04:03:53;;;;;;;9.48;6.85;;;10.40;99.90;;;;;;5064743;28;20035;-69
2022/10/01 04:06:19;;;;;;;9.25;5.80;;;10.40;99.90;;;;;;5065789;28;20492;-68
2022/10/01 04:08:45;;;;;;;6.65;5.72;;;10.40;99.90;;;;;;5066401;28;20044;-69
2022/10/01 04:11:10;;;;;;;8.18;5.88;;;10.40;99.90;;;;;;5081685;28;20096;-68
2022/10/01 04:13:36;;;;;;;7.03;5.63;;;10.40;99.90;;;;;;5068691;28;20039;-68
2022/10/01 04:16:03;;;;;;;9.55;6.63;;;10.40;99.90;;;;;;5087651;28;20552;-69
2022/10/01 04:18:30;;;;;;;7.13;5.78;;;10.40;99.90;;;;;;5066807;28;20039;-68
2022/10/01 04:20:56;;;;;;;7.43;5.88;;;10.40;99.90;;;;;;5084740;28;20039;-68
2022/10/01 04:23:23;;;;;;;6.82;5.65;;;10.40;99.90;;;;;;5082113;28;20100;-68
2022/10/01 04:25:49;;;;;;;7.82;5.80;;;10.40;99.90;;;;;;5085771;28;20551;-69
2022/10/01 04:28:15;;;;;;;8.25;6.00;;;10.40;99.90;;;;;;5096959;28;20115;-67
2022/10/01 04:30:43;;;;;;;8.02;6.00;;;10.40;99.90;;;;;;5086110;28;20039;-68
2022/10/01 04:33:15;;;;;;;7.18;5.43;;;10.40;99.90;;;;;;5082371;28;20044;-69
2022/10/01 04:35:42;;;;;;;8.37;6.10;;;10.50;99.90;;;;;;5085557;28;20036;-67
2022/10/01 04:38:17;;;;;;;7.70;6.45;;;10.50;99.90;;;;;;5070549;28;20047;-69
2022/10/01 04:40:43;;;;;;;6.38;5.30;;;10.50;99.90;;;;;;5086768;28;20505;-68
2022/10/01 04:43:11;;;;;;;6.10;5.50;;;10.50;99.90;;;;;;5092076;28;20062;-69
2022/10/01 04:45:37;;;;;;;6.97;5.40;;;10.50;99.90;;;;;;5085347;28;20055;-68
2022/10/01 04:48:03;;;;;;;7.25;5.22;;;10.50;99.90;;;;;;5085033;28;20399;-69
2022/10/01 04:50:30;;;;;;;7.15;5.47;;;10.50;99.90;;;;;;5074509;28;20043;-69
2022/10/01 04:52:56;;;;;;;6.82;5.82;;;10.50;99.90;;;;;;5088170;28;20043;-69
2022/10/01 04:55:22;;;;;;;7.28;5.72;;;10.50;99.90;;;;;;5090943;28;20032;-69
2022/10/01 04:57:48;;;;;;;5.88;5.05;;;10.50;99.90;;;;;;5087503;28;20396;-69
2022/10/01 05:00:17;;;;;;;6.75;5.53;;;10.50;99.90;;;;;;5103821;28;20032;-68
2022/10/01 05:02:48;;;;;;;6.28;4.93;;;10.50;99.90;;;;;;5107448;28;20093;-67
2022/10/01 05:05:15;;;;;;;5.45;4.55;;;10.60;99.90;;;;;;5084864;28;20120;-68
2022/10/01 05:07:41;;;;;;;6.05;4.95;;;10.60;99.90;;;;;;5090577;28;20058;-68
2022/10/01 05:10:10;;;;;;;7.35;5.22;;;10.60;99.90;;;;;;5085031;28;20042;-68
2022/10/01 05:12:36;;;;;;;5.05;4.30;;;10.60;99.90;;;;;;5106151;28;20031;-68
2022/10/01 05:15:02;;;;;;;6.13;4.55;;;10.60;99.90;;;;;;5091061;28;20445;-68
2022/10/01 05:17:31;;;;;;;5.97;4.63;;;10.60;99.90;;;;;;5089428;28;20122;-68
2022/10/01 05:19:57;;;;;;;5.53;4.70;;;10.70;99.90;;;;;;5089275;28;20054;-68
2022/10/01 05:22:23;;;;;;;6.05;5.07;;;10.60;99.90;;;;;;5089839;28;20484;-68
2022/10/01 05:24:49;;;;;;;5.70;4.68;;;10.70;99.90;;;;;;5071459;28;20035;-67
2022/10/01 05:27:15;;;;;;;6.40;4.95;;;10.70;99.90;;;;;;5086937;28;20039;-68
2022/10/01 05:29:41;;;;;;;6.55;4.57;;;10.70;99.90;;;;;;5086537;28;20095;-67
2022/10/01 05:32:09;;;;;;;5.30;4.50;;;10.80;99.90;;;;;;5084969;28;20071;-68
2022/10/01 05:34:35;;;;;;;6.60;5.28;;;10.70;99.90;;;;;;5087744;28;20130;-67
2022/10/01 05:37:01;;;;;;;7.32;5.68;;;10.70;99.90;;;;;;5069162;28;20043;-68
2022/10/01 05:39:28;;;;;;;7.03;5.22;;;10.80;99.90;;;;;;5070224;28;20078;-66
2022/10/01 05:41:55;;;;;;;6.22;5.20;;;10.80;99.90;;;;;;5064650;28;20480;-67
2022/10/01 05:44:21;;;;;;;6.38;5.07;;;10.80;99.90;;;;;;5086500;28;20044;-67
2022/10/01 05:46:47;;;;;;;7.35;5.57;;;10.80;99.90;;;;;;5079746;28;20047;-68
2022/10/01 05:49:14;;;;;;;5.85;5.18;;;10.80;99.90;;;;;;5069395;28;20122;-67
2022/10/01 05:51:39;;;;;;;6.90;5.15;;;10.80;99.90;;;;;;5053171;28;20047;-67
2022/10/01 05:54:05;;;;;;;6.72;6.03;;;10.80;99.90;;;;;;5069605;28;20065;-68
2022/10/01 05:56:33;;;;;;;9.70;6.07;;;10.90;99.90;;;;;;5075052;28;20028;-68
2022/10/01 05:58:59;;;;;;;7.22;5.63;;;10.90;99.90;;;;;;5069233;28;20062;-68
2022/10/01 06:01:25;;;;;;;8.38;6.10;;;10.90;99.90;;;;;;5106513;28;20039;-68
2022/10/01 06:03:51;;;;;;;7.28;6.18;;;10.90;99.90;;;;;;5088056;28;20055;-68
2022/10/01 06:06:25;;;;;;;7.40;5.97;;;11.00;99.90;;;;;;5102694;28;20043;-66
2022/10/01 06:08:50;;;;;;;10.93;6.32;;;11.00;99.90;;;;;;5084180;28;20031;-66
2022/10/01 06:11:21;;;;;;;7.60;6.43;;;11.00;99.90;;;;;;5083800;28;20508;-69
2022/10/01 06:13:48;;;;;;;7.28;6.00;;;11.00;99.90;;;;;;5088435;28;20124;-67
2022/10/01 06:16:14;;;;;;;9.93;7.03;;;11.10;99.90;;;;;;5099003;28;20512;-68
2022/10/01 06:18:41;;;;;;;8.25;6.90;;;11.10;99.90;;;;;;5105310;28;20034;-67
2022/10/01 06:21:07;;;;;;;9.20;7.15;;;11.10;99.90;;;;;;5039405;28;20028;-68
2022/10/01 06:23:34;;;;;;;8.25;6.47;;;11.10;99.90;;;;;;5086908;28;20500;-68
2022/10/01 06:26:01;;;;;;;8.25;7.35;;;11.20;99.90;;;;;;5070406;28;20039;-68
2022/10/01 06:28:27;;;;;;;9.18;6.85;;;11.20;99.90;;;;;;5070064;28;20126;-69
2022/10/01 06:30:53;;;;;;;9.80;7.22;;;11.20;99.90;;;;;;5105829;28;20563;-68
2022/10/01 06:33:19;;;;;;;10.30;7.70;;;11.30;99.90;;;;;;5085514;28;20062;-68
2022/10/01 06:35:48;;;;;;;8.77;6.93;;;11.30;99.90;;;;;;5084202;28;20031;-68
2022/10/01 06:38:15;;;;;;;9.70;7.95;;;11.40;99.90;;;;;;5061248;28;20043;-68
2022/10/01 06:40:41;;;;;;;10.00;8.15;;;11.30;99.90;;;;;;5050669;28;20115;-68
2022/10/01 06:43:08;;;;;;;9.23;7.82;;;11.40;99.90;;;;;;5064212;28;20050;-69
2022/10/01 06:45:47;;;;;;;10.30;7.80;;;11.40;99.90;;;;;;5064830;28;20047;-69
2022/10/01 06:48:15;;;;;;;11.23;7.75;;;11.50;99.90;;;;;;5082768;28;20032;-67
2022/10/01 06:50:46;;;;;;;9.80;8.45;;;11.50;99.90;;;;;;5082584;28;20090;-68
2022/10/01 06:53:13;;;;;;;13.25;8.80;;;11.50;99.90;;;;;;5066657;28;20052;-69
2022/10/01 06:55:39;;;;;;;12.77;9.15;;;11.50;99.90;;;;;;5063563;28;20036;-68
2022/10/01 06:58:10;;;;;;;11.45;8.65;;;11.60;99.90;;;;;;5067350;28;20511;-69
2022/10/01 07:00:37;;;;;;;10.18;9.07;;;11.60;99.90;;;;;;5055817;28;20062;-69
2022/10/01 07:03:10;;;;;;;11.90;8.70;;;11.60;99.90;;;;;;5070122;28;20044;-69
2022/10/01 07:05:37;;;;;;;16.80;9.80;;;11.60;99.90;;;;;;5083958;28;20522;-69
2022/10/01 07:08:06;;;;;;;17.83;9.68;;;11.70;99.90;;;;;;5086321;28;20044;-68
2022/10/01 07:10:33;;;;;;;12.52;9.98;;;11.70;99.90;;;;;;5072280;28;20066;-68
2022/10/01 07:13:17;;;;;;;12.27;10.02;;;11.70;99.90;;;;;;5081850;28;20086;-69
2022/10/01 07:15:44;;;;;;;11.48;9.52;;;11.80;99.90;;;;;;5087947;28;20032;-69
2022/10/01 07:18:11;;;;;;;13.95;11.02;;;11.80;99.90;;;;;;5074340;28;20036;-68
2022/10/01 07:20:41;;;;;;;12.13;10.05;;;11.90;99.90;;;;;;5088855;28;20099;-68
2022/10/01 07:23:25;;;;;;;14.15;9.80;;;11.90;99.90;;;;;;5089172;28;20544;-68
2022/10/01 07:25:51;;;;;;;16.77;10.38;;;12.00;99.90;;;;;;5055439;28;20040;-69
2022/10/01 07:28:20;;;;;;;13.82;10.45;;;11.90;99.90;;;;;;5071833;28;20032;-69
2022/10/01 07:30:57;;;;;;;16.45;10.75;;;12.00;99.90;;;;;;5069941;28;20497;-68
2022/10/01 07:33:23;;;;;;;15.38;11.75;;;12.00;99.90;;;;;;5086765;28;20126;-68
2022/10/01 07:35:48;;;;;;;16.95;11.52;;;12.00;99.90;;;;;;5059794;28;20127;-68
2022/10/01 07:38:15;;;;;;;14.75;10.98;;;12.10;99.90;;;;;;5040420;28;20105;-69
2022/10/01 07:40:41;;;;;;;19.95;11.65;;;12.10;99.90;;;;;;5039720;28;20028;-68
2022/10/01 07:43:08;;;;;;;13.30;11.30;;;12.20;99.90;;;;;;5091233;28;20043;-69
2022/10/01 07:45:33;;;;;;;14.98;11.68;;;12.20;99.90;;;;;;5063964;28;20520;-69
2022/10/01 07:48:00;;;;;;;18.13;11.77;;;12.20;99.90;;;;;;5086577;28;20121;-68
2022/10/01 07:50:31;;;;;;;15.30;10.63;;;12.30;99.90;;;;;;5110305;28;20069;-69
2022/10/01 07:52:58;;;;;;;16.58;11.18;;;12.30;99.90;;;;;;5092327;28;20040;-68
2022/10/01 07:55:26;;;;;;;17.88;10.70;;;12.30;99.90;;;;;;5086572;28;20439;-68
2022/10/01 07:57:54;;;;;;;12.55;10.45;;;12.30;99.90;;;;;;5070861;28;20036;-68
2022/10/01 08:00:21;;;;;;;17.05;11.15;;;12.40;99.90;;;;;;5062897;28;20452;-69
2022/10/01 08:02:52;;;;;;;23.48;11.43;;;12.50;99.90;;;;;;5097441;28;20038;-69
2022/10/01 08:05:20;;;;;;;18.20;11.52;;;12.50;99.90;;;;;;5081512;28;20047;-69
2022/10/01 08:07:48;;;;;;;16.80;10.93;;;12.60;99.90;;;;;;5092861;28;20194;-67
2022/10/01 08:10:16;;;;;;;21.45;11.20;;;12.70;99.90;;;;;;5090332;28;20036;-68
2022/10/01 08:12:42;;;;;;;21.45;10.95;;;12.80;99.90;;;;;;5095213;28;20047;-69
2022/10/01 08:15:13;;;;;;;15.88;10.75;;;12.80;99.90;;;;;;5087516;28;20036;-68
2022/10/01 08:17:39;;;;;;;12.60;9.57;;;13.10;99.90;;;;;;5081378;28;20047;-68
2022/10/01 08:20:06;;;;;;;17.65;10.10;;;13.20;99.90;;;;;;5076865;28;20032;-69
2022/10/01 08:22:33;;;;;;;17.80;9.80;;;13.40;99.90;;;;;;5090542;28;20115;-70
2022/10/01 08:24:59;;;;;;;12.02;7.82;;;13.50;99.90;;;;;;5079515;28;20090;-70
2022/10/01 08:27:25;;;;;;;9.68;6.75;;;13.90;99.90;;;;;;5045984;28;20028;-68
2022/10/01 08:29:52;;;;;;;15.23;8.40;;;13.70;99.90;;;;;;5077169;28;20406;-68
2022/10/01 08:32:18;;;;;;;13.05;6.60;;;13.80;99.90;;;;;;5090561;28;20048;-69
2022/10/01 08:34:45;;;;;;;13.13;7.28;;;13.80;99.90;;;;;;5106658;28;20356;-69
2022/10/01 08:37:11;;;;;;;14.52;6.72;;;13.80;99.90;;;;;;5085936;28;20499;-69
2022/10/01 08:39:36;;;;;;;13.02;7.55;;;13.70;99.90;;;;;;5092631;28;20050;-69
2022/10/01 08:42:44;;;;;;;13.48;6.90;;;13.80;99.90;;;;;;5061219;28;20451;-69
2022/10/01 08:45:19;;;;;;;9.38;5.90;;;13.90;99.90;;;;;;5090420;28;20368;-68
2022/10/01 08:48:11;;;;;;;12.23;6.40;;;14.00;99.90;;;;;;5077874;28;20047;-69
2022/10/01 08:50:56;;;;;;;9.15;6.28;;;14.10;99.90;;;;;;5078261;28;20043;-68
2022/10/01 08:53:38;;;;;;;12.35;6.35;;;14.20;99.90;;;;;;5092551;28;20555;-69
2022/10/01 08:56:13;;;;;;;14.50;6.90;;;14.20;99.90;;;;;;5092244;28;20527;-67
2022/10/01 08:58:45;;;;;;;9.48;6.10;;;14.30;99.90;;;;;;5062351;28;20040;-69
2022/10/01 09:01:12;;;;;;;9.70;6.30;;;14.40;99.90;;;;;;5098689;28;20130;-69
2022/10/01 09:03:38;;;;;;;15.95;6.40;;;14.40;99.90;;;;;;5095513;28;20553;-68
2022/10/01 09:06:25;;;;;;;8.90;5.70;;;14.60;99.90;;;;;;5078590;28;20055;-68
2022/10/01 09:09:00;;;;;;;15.43;5.80;;;14.70;99.90;;;;;;5064413;28;20039;-69
2022/10/01 09:12:00;;;;;;;18.17;5.28;;;14.80;99.90;;;;;;5089715;28;20402;-69
2022/10/01 09:15:01;;;;;;;16.33;4.65;;;14.80;99.90;;;;;;5086744;28;20042;-69
2022/10/01 09:18:02;;;;;;;8.52;3.35;;;14.80;99.90;;;;;;5081669;28;20531;-69
2022/10/01 09:20:37;;;;;;;9.40;3.83;;;14.90;99.90;;;;;;5092352;28;20048;-68
2022/10/01 09:23:25;;;;;;;9.02;3.28;;;14.90;99.90;;;;;;5082952;28;20043;-69
2022/10/01 09:25:51;;;;;;;9.23;3.55;;;14.80;99.90;;;;;;5093856;28;20450;-69
2022/10/01 09:28:32;;;;;;;7.90;3.53;;;14.80;99.90;;;;;;5062734;28;20103;-68
2022/10/01 09:30:57;;;;;;;10.77;3.40;;;14.80;99.90;;;;;;5085962;28;20511;-68
2022/10/01 09:33:40;;;;;;;8.15;3.08;;;14.80;99.90;;;;;;5093429;28;20050;-68
2022/10/01 09:36:32;;;;;;;7.13;3.20;;;14.80;99.90;;;;;;5092006;28;20488;-69
2022/10/01 09:39:23;;;;;;;10.60;2.90;;;14.80;99.90;;;;;;5075270;28;20043;-69
2022/10/01 09:41:49;;;;;;;6.00;2.88;;;15.10;99.90;;;;;;5110411;28;20492;-68
2022/10/01 09:44:30;;;;;;;16.77;3.42;;;15.10;99.90;;;;;;5035733;28;20085;-69
2022/10/01 09:46:56;;;;;;;5.60;2.38;;;15.10;99.90;;;;;;5061709;28;20501;-69
2022/10/01 09:49:22;;;;;;;6.47;2.05;;;15.00;99.90;;;;;;5092730;28;20489;-69
2022/10/01 09:51:56;;;;;;;8.13;2.67;;;15.00;99.90;;;;;;5074865;28;20044;-69
2022/10/01 09:54:44;;;;;;;7.47;2.60;;;15.00;99.90;;;;;;5094227;28;20122;-68
2022/10/01 09:57:16;;;;;;;12.77;2.97;;;15.10;99.90;;;;;;5058894;28;20040;-69
2022/10/01 09:59:53;;;;;;;5.97;2.13;;;15.40;99.90;;;;;;5090184;28;20036;-68
2022/10/01 10:02:29;;;;;;;11.10;2.88;;;15.50;99.90;;;;;;5078461;28;20035;-69
2022/10/01 10:05:11;;;;;;;5.18;2.05;;;15.80;99.90;;;;;;5081024;28;20043;-69
2022/10/01 10:07:38;;;;;;;;;;;15.90;99.90;;;;;;5068704;28;20488;-68
2022/10/01 10:10:26;;;;;;;6.03;2.33;;;15.90;99.90;;;;;;5074256;28;19963;-68
2022/10/01 10:13:00;;;;;;;3.97;1.60;;;15.90;99.90;;;;;;5073727;28;20040;-68
2022/10/01 10:15:28;;;;;;;3.53;1.55;;;15.90;99.90;;;;;;5039802;28;20079;-69
2022/10/01 10:18:16;;;;;;;7.20;1.60;;;16.00;99.90;;;;;;5056887;28;20111;-68
2022/10/01 10:20:44;;;;;;;6.20;2.20;;;15.90;99.90;;;;;;5058685;28;20036;-69
2022/10/01 10:23:25;;;;;;;6.63;1.63;;;15.70;99.90;;;;;;5089115;28;20056;-68
2022/10/01 10:25:54;;;;;;;7.72;2.28;;;15.50;99.90;;;;;;5089343;28;20533;-69
2022/10/01 10:28:22;;;;;;;5.68;1.70;;;15.30;99.90;;;;;;5073250;28;20040;-69
2022/10/01 10:30:54;;;;;;;4.10;1.55;;;15.10;99.90;;;;;;5073531;28;20131;-69
2022/10/01 10:33:25;;;;;;;4.43;1.90;;;14.80;99.90;;;;;;5090031;28;20540;-69
2022/10/01 10:36:04;;;;;;;4.07;1.80;;;14.60;99.90;;;;;;5072966;28;20473;-69
2022/10/01 10:38:33;;;;;;;6.35;2.03;;;14.50;99.90;;;;;;5059498;28;20070;-69
2022/10/01 10:41:00;;;;;;;13.02;2.63;;;14.50;99.90;;;;;;5073260;28;20404;-69
2022/10/01 10:43:33;;;;;;;7.10;2.65;;;14.60;99.90;;;;;;5072746;28;20462;-69
2022/10/01 10:46:00;;;;;;;8.13;2.63;;;14.60;99.90;;;;;;5073276;28;20044;-68
2022/10/01 10:48:36;;;;;;;6.40;2.20;;;14.80;99.90;;;;;;5103611;28;20530;-68
2022/10/01 10:51:04;;;;;;;7.88;2.28;;;14.90;99.90;;;;;;5084582;28;20073;-69
2022/10/01 10:53:43;;;;;;;4.07;2.08;;;14.90;99.90;;;;;;5075047;28;20078;-69
2022/10/01 10:56:23;;;;;;;8.50;3.08;;;14.90;99.90;;;;;;5090237;28;20449;-69
2022/10/01 10:58:51;;;;;;;5.55;2.85;;;14.90;99.90;;;;;;5090699;28;20036;-69
2022/10/01 11:01:27;;;;;;;8.27;3.88;;;14.80;99.90;;;;;;5058233;28;20036;-69
2022/10/01 11:03:56;;;;;;;7.50;2.05;;;14.70;99.90;;;;;;5072690;28;20048;-69
2022/10/01 11:06:22;;;;;;;4.57;2.28;;;14.70;99.90;;;;;;5072592;28;20074;-69
2022/10/01 11:09:00;;;;;;;4.43;1.52;;;14.50;99.90;;;;;;5057593;28;20109;-69
2022/10/01 11:11:35;;;;;;;6.28;1.83;;;14.30;99.90;;;;;;5055829;28;20039;-69
2022/10/01 11:14:42;;;;;;;10.40;2.33;;;14.10;99.90;;;;;;5076256;28;20052;-70
2022/10/01 11:17:43;;;;;;;4.50;1.40;;;13.80;99.90;;;;;;5060901;28;20464;-69
2022/10/01 11:20:19;;;;;;;2.83;1.05;;;13.50;99.90;;;;;;5054878;28;20501;-69
2022/10/01 11:23:10;;;;;;;3.83;2.10;;;13.20;99.90;;;;;;5072257;28;20043;-69
2022/10/01 11:26:19;;;;;;;5.50;1.58;;;13.00;99.90;;;;;;5062736;28;20055;-69
2022/10/01 11:29:10;;;;;;;5.60;2.20;;;12.70;99.90;;;;;;5072507;28;20028;-68
2022/10/01 11:31:54;;;;;;;2.90;1.55;;;12.60;99.90;;;;;;5090266;28;20040;-69
2022/10/01 11:34:29;;;;;;;4.18;2.17;;;12.40;99.90;;;;;;5073528;28;20051;-69
2022/10/01 11:36:57;;;;;;;3.55;1.90;;;12.30;99.90;;;;;;5074702;28;20035;-69
2022/10/01 11:39:24;;;;;;;3.45;1.88;;;12.40;99.90;;;;;;5072430;28;20681;-69
2022/10/01 11:42:09;;;;;;;5.05;1.38;;;12.40;99.90;;;;;;5072377;28;20040;-68
2022/10/01 11:45:01;;;;;;;5.95;1.95;;;12.40;99.90;;;;;;5072641;28;20520;-69
2022/10/01 11:47:46;;;;;;;5.55;1.95;;;12.60;99.90;;;;;;5089973;28;20035;-69
2022/10/01 11:50:24;;;;;;;7.20;2.10;;;12.70;99.90;;;;;;5090831;28;20039;-68
2022/10/01 11:52:56;;;;;;;9.68;2.10;;;12.80;99.90;;;;;;5071804;28;20048;-68
2022/10/01 11:58:53;;;;;;;12.17;2.47;;;13.00;99.90;;;;;;5090008;28;20070;-69
2022/10/01 12:01:29;;;;;;;9.63;2.50;;;13.20;99.90;;;;;;5072035;28;20839;-69
2022/10/01 12:04:21;;;;;;;5.28;2.50;;;13.50;99.90;;;;;;5071989;28;20041;-69
2022/10/01 12:06:56;;;;;;;7.72;2.28;;;13.60;99.90;;;;;;5071896;28;20040;-69
2022/10/01 12:10:07;;;;;;;9.82;2.40;;;13.60;99.90;;;;;;5071824;28;20101;-68
2022/10/01 12:12:47;;;;;;;7.28;2.20;;;13.80;99.90;;;;;;5061935;28;20113;-68
2022/10/01 12:15:27;;;;;;;13.13;2.45;;;14.10;99.90;;;;;;5074621;28;20504;-69
2022/10/01 12:18:05;;;;;;;11.45;2.95;;;14.20;99.90;;;;;;5089996;28;20495;-69
2022/10/01 12:20:40;;;;;;;7.63;2.67;;;14.50;99.90;;;;;;5071592;28;20111;-70
2022/10/01 12:23:11;;;;;;;12.30;3.03;;;14.60;99.90;;;;;;5071760;28;20044;-69
2022/10/01 12:25:56;;;;;;;11.45;2.50;;;14.80;99.90;;;;;;5090449;28;20051;-69
2022/10/01 12:28:31;;;;;;;9.85;2.22;;;14.90;99.90;;;;;;5056205;28;20166;-69
2022/10/01 12:31:11;;;;;;;7.50;2.20;;;15.00;99.90;;;;;;5055205;28;20040;-69
2022/10/01 12:34:05;;;;;;;7.13;1.98;;;15.20;99.90;;;;;;5068111;28;20131;-69
2022/10/01 12:36:48;;;;;;;11.98;2.28;;;15.10;99.90;;;;;;5088694;28;20040;-69
2022/10/01 12:39:28;;;;;;;6.70;1.98;;;15.10;99.90;;;;;;5087432;28;20134;-69
2022/10/01 12:42:12;;;;;;;8.57;2.78;;;15.20;99.90;;;;;;5087121;28;20055;-68
2022/10/01 12:44:57;;;;;;;10.55;2.50;;;15.10;99.90;;;;;;5066609;28;20517;-69
2022/10/01 12:47:41;;;;;;;10.38;3.13;;;14.90;99.90;;;;;;5083363;28;20093;-69
2022/10/01 12:50:13;;;;;;;9.38;2.75;;;14.80;99.90;;;;;;5087205;28;20048;-69
2022/10/01 12:52:50;;;;;;;12.30;3.50;;;14.70;99.90;;;;;;5086866;28;20048;-70
2022/10/01 12:55:19;;;;;;;9.98;2.95;;;14.50;99.90;;;;;;5078692;28;20032;-70
2022/10/01 12:58:22;;;;;;;10.18;2.65;;;14.40;99.90;;;;;;5073242;28;20038;-69
2022/10/01 13:00:59;;;;;;;8.88;2.58;;;14.20;99.90;;;;;;5084260;28;20493;-69
2022/10/01 13:03:44;;;;;;;7.47;2.55;;;14.10;99.90;;;;;;5084667;28;20078;-69
2022/10/01 13:06:22;;;;;;;8.82;2.65;;;14.00;99.90;;;;;;5072342;28;20045;-69
2022/10/01 13:09:00;;;;;;;8.77;2.97;;;14.00;99.90;;;;;;5072567;28;20044;-69
2022/10/01 13:11:50;;;;;;;13.93;2.88;;;14.10;99.90;;;;;;5072729;28;20048;-69